createdAt,value
2022-08-25T00:00:25.585Z,91.00
2022-08-25T00:02:59.348Z,109.80
2022-08-25T00:05:34.611Z,112.00
2022-08-25T00:08:06.591Z,116.90
2022-08-25T00:10:42.513Z,96.90
2022-08-25T00:13:14.585Z,88.00
2022-08-25T00:15:48.767Z,125.50
2022-08-25T00:18:20.390Z,114.20
2022-08-25T00:20:51.490Z,130.07
2022-08-25T00:23:21.684Z,110.72
2022-08-25T00:25:51.034Z,104.47
2022-08-25T00:28:20.378Z,112.85
2022-08-25T00:30:50.131Z,120.20
2022-08-25T00:33:21.121Z,109.72
2022-08-25T00:35:50.636Z,120.72
2022-08-25T00:38:20.239Z,101.35
2022-08-25T00:41:05.898Z,111.50
2022-08-25T00:43:38.578Z,89.30
2022-08-25T00:48:40.483Z,56.55
2022-08-25T00:51:14.815Z,75.53
2022-08-25T00:53:44.694Z,81.55
2022-08-25T00:56:15.571Z,85.00
2022-08-25T00:58:53.815Z,85.03
2022-08-25T01:01:23.051Z,89.50
2022-08-25T01:03:54.107Z,85.82
2022-08-25T01:06:24.707Z,95.15
2022-08-25T01:08:54.774Z,85.10
2022-08-25T01:11:24.123Z,80.47
2022-08-25T01:13:58.337Z,83.10
2022-08-25T01:16:27.532Z,82.68
2022-08-25T01:19:00.706Z,78.50
2022-08-25T01:21:42.627Z,77.65
2022-08-25T01:24:17.787Z,72.88
2022-08-25T01:26:46.997Z,65.57
2022-08-25T01:29:26.470Z,71.97
2022-08-25T01:31:59.772Z,70.45
2022-08-25T01:34:32.082Z,61.28
2022-08-25T01:37:03.763Z,71.28
2022-08-25T01:39:36.724Z,62.97
2022-08-25T01:42:24.619Z,57.58
2022-08-25T01:44:54.364Z,58.60
2022-08-25T01:47:24.072Z,66.28
2022-08-25T01:49:53.323Z,76.68
2022-08-25T01:52:29.846Z,76.45
2022-08-25T01:55:02.059Z,85.60
2022-08-25T01:57:32.589Z,85.95
2022-08-25T02:00:01.882Z,66.35
2022-08-25T02:02:42.773Z,68.43
2022-08-25T02:05:18.477Z,65.70
2022-08-25T02:07:53.795Z,65.70
2022-08-25T02:10:24.324Z,71.18
2022-08-25T02:12:54.691Z,68.82
2022-08-25T02:15:24.197Z,63.67
2022-08-25T02:17:53.359Z,71.18
2022-08-25T02:20:24.065Z,72.03
2022-08-25T02:22:56.856Z,72.90
2022-08-25T02:25:26.404Z,63.92
2022-08-25T02:27:55.664Z,73.18
2022-08-25T02:30:25.031Z,75.90
2022-08-25T02:32:54.764Z,75.63
2022-08-25T02:35:24.183Z,78.05
2022-08-25T02:37:55.324Z,61.47
2022-08-25T02:40:24.866Z,70.35
2022-08-25T02:42:55.655Z,65.97
2022-08-25T02:45:25.425Z,61.03
2022-08-25T02:47:54.737Z,65.18
2022-08-25T02:50:24.190Z,50.15
2022-08-25T02:52:55.126Z,55.60
2022-08-25T02:55:24.374Z,47.33
2022-08-25T02:57:53.514Z,46.40
2022-08-25T03:00:23.176Z,44.72
2022-08-25T03:02:52.492Z,55.00
2022-08-25T03:05:21.593Z,64.30
2022-08-25T03:07:50.931Z,51.70
2022-08-25T03:10:24.837Z,57.67
2022-08-25T03:12:54.179Z,56.25
2022-08-25T03:15:25.744Z,57.00
2022-08-25T03:17:56.186Z,62.80
2022-08-25T03:20:29.841Z,54.75
2022-08-25T03:22:59.308Z,52.15
2022-08-25T03:25:47.401Z,58.10
2022-08-25T03:28:17.504Z,51.83
2022-08-25T03:30:47.033Z,53.78
2022-08-25T03:33:22.746Z,48.40
2022-08-25T03:35:51.846Z,50.35
2022-08-25T03:38:21.157Z,58.58
2022-08-25T03:40:52.027Z,52.53
2022-08-25T03:43:22.537Z,50.00
2022-08-25T03:45:51.849Z,58.63
2022-08-25T03:48:21.207Z,42.88
2022-08-25T03:50:54.880Z,46.83
2022-08-25T03:53:24.160Z,50.15
2022-08-25T03:55:54.804Z,53.90
2022-08-25T03:58:23.927Z,55.78
2022-08-25T04:00:53.163Z,49.78
2022-08-25T04:03:22.728Z,53.55
2022-08-25T04:05:52.310Z,50.75
2022-08-25T04:08:22.632Z,53.20
2022-08-25T04:10:53.198Z,53.65
2022-08-25T04:13:22.888Z,57.38
2022-08-25T04:15:52.023Z,53.67
2022-08-25T04:18:21.273Z,40.47
2022-08-25T04:20:50.787Z,47.35
2022-08-25T04:23:19.934Z,54.15
2022-08-25T04:25:49.122Z,53.30
2022-08-25T04:28:19.661Z,62.38
2022-08-25T04:30:51.985Z,45.88
2022-08-25T04:33:21.495Z,61.67
2022-08-25T04:35:51.697Z,107.22
2022-08-25T04:38:20.907Z,83.95
2022-08-25T04:40:58.442Z,55.65
2022-08-25T04:43:29.115Z,58.08
2022-08-25T04:45:58.734Z,79.15
2022-08-25T04:48:28.156Z,66.97
2022-08-25T04:50:57.438Z,53.38
2022-08-25T04:53:26.539Z,78.40
2022-08-25T04:55:55.693Z,57.47
2022-08-25T04:58:24.809Z,49.38
2022-08-25T05:01:02.395Z,55.08
2022-08-25T05:03:32.362Z,42.80
2022-08-25T05:06:01.748Z,51.85
2022-08-25T05:08:31.423Z,51.25
2022-08-25T05:11:00.672Z,45.92
2022-08-25T05:13:33.453Z,62.00
2022-08-25T05:16:04.864Z,51.92
2022-08-25T05:18:39.001Z,51.75
2022-08-25T05:21:12.355Z,54.58
2022-08-25T05:23:41.950Z,51.17
2022-08-25T05:26:19.577Z,51.92
2022-08-25T05:28:52.034Z,52.30
2022-08-25T05:31:25.275Z,54.60
2022-08-25T05:33:55.426Z,60.00
2022-08-25T05:36:27.758Z,47.33
2022-08-25T05:38:57.078Z,47.92
2022-08-25T05:41:30.059Z,50.92
2022-08-25T05:43:59.743Z,45.50
2022-08-25T05:46:32.012Z,47.40
2022-08-25T05:49:02.047Z,40.50
2022-08-25T05:51:31.647Z,45.85
2022-08-25T05:54:00.743Z,52.92
2022-08-25T05:56:29.974Z,54.60
2022-08-25T05:58:59.318Z,50.00
2022-08-25T06:01:48.156Z,46.03
2022-08-25T06:04:18.303Z,48.05
2022-08-25T06:06:48.909Z,49.80
2022-08-25T06:09:18.064Z,51.63
2022-08-25T06:11:51.700Z,45.88
2022-08-25T06:14:24.438Z,47.20
2022-08-25T06:16:55.375Z,53.55
2022-08-25T06:19:24.932Z,47.15
2022-08-25T06:21:56.659Z,51.13
2022-08-25T06:24:27.876Z,44.92
2022-08-25T06:26:57.932Z,48.38
2022-08-25T06:29:28.001Z,43.63
2022-08-25T06:31:58.944Z,54.45
2022-08-25T06:34:28.215Z,44.35
2022-08-25T06:36:57.366Z,52.70
2022-08-25T06:39:29.030Z,47.15
2022-08-25T06:41:59.149Z,52.28
2022-08-25T06:44:33.315Z,48.85
2022-08-25T06:47:03.863Z,53.47
2022-08-25T06:49:36.249Z,53.10
2022-08-25T06:52:06.280Z,48.35
2022-08-25T06:54:35.572Z,51.90
2022-08-25T06:57:12.647Z,51.88
2022-08-25T06:59:42.838Z,51.65
2022-08-25T07:02:15.320Z,56.35
2022-08-25T07:04:56.949Z,48.03
2022-08-25T07:07:28.010Z,73.00
2022-08-25T07:10:15.402Z,68.68
2022-08-25T07:12:48.676Z,49.58
2022-08-25T07:15:20.348Z,85.15
2022-08-25T07:17:51.936Z,83.57
2022-08-25T07:20:21.406Z,67.65
2022-08-25T07:22:53.191Z,72.07
2022-08-25T07:25:22.696Z,65.03
2022-08-25T07:27:58.685Z,82.80
2022-08-25T07:30:28.782Z,80.50
2022-08-25T07:33:00.715Z,70.72
2022-08-25T07:38:22.475Z,121.65
2022-08-25T07:40:57.100Z,76.00
2022-08-25T07:43:26.603Z,73.10
2022-08-25T07:45:56.284Z,94.72
2022-08-25T07:48:27.006Z,110.85
2022-08-25T07:50:56.686Z,78.88
2022-08-25T07:53:26.283Z,81.50
2022-08-25T07:56:00.435Z,83.10
2022-08-25T07:58:32.288Z,91.70
2022-08-25T08:01:03.839Z,93.22
2022-08-25T08:03:50.721Z,100.75
2022-08-25T08:06:23.528Z,74.65
2022-08-25T08:08:57.941Z,82.78
2022-08-25T08:11:30.502Z,66.32
2022-08-25T08:14:00.418Z,71.80
2022-08-25T08:16:33.049Z,87.72
2022-08-25T08:19:05.154Z,43.40
2022-08-25T08:21:37.643Z,50.92
2022-08-25T08:24:24.927Z,44.30
2022-08-25T08:26:59.026Z,43.47
2022-08-25T08:29:28.638Z,46.70
2022-08-25T08:31:57.762Z,54.55
2022-08-25T08:34:29.580Z,66.15
2022-08-25T08:36:59.806Z,65.40
2022-08-25T08:39:30.891Z,58.60
2022-08-25T08:42:39.779Z,65.85
2022-08-25T08:45:26.768Z,69.78
2022-08-25T08:48:36.934Z,69.88
2022-08-25T08:51:22.994Z,64.55
2022-08-25T08:54:00.415Z,62.88
2022-08-25T08:56:35.927Z,60.22
2022-08-25T08:59:10.911Z,72.15
2022-08-25T09:01:52.576Z,52.38
2022-08-25T09:04:31.307Z,73.32
2022-08-25T09:07:12.004Z,65.40
2022-08-25T09:09:44.244Z,52.40
2022-08-25T09:12:27.800Z,47.83
2022-08-25T09:15:13.004Z,90.05
2022-08-25T09:18:07.070Z,51.97
2022-08-25T09:21:01.980Z,53.42
2022-08-25T09:23:46.461Z,45.28
2022-08-25T09:26:31.869Z,59.67
2022-08-25T09:29:16.212Z,94.25
2022-08-25T09:31:46.820Z,147.13
2022-08-25T09:34:22.214Z,134.50
2022-08-25T09:36:53.498Z,126.70
2022-08-25T09:39:24.243Z,116.50
2022-08-25T09:42:00.297Z,85.68
2022-08-25T09:44:36.406Z,105.72
2022-08-25T09:47:15.093Z,173.05
2022-08-25T09:49:49.264Z,98.15
2022-08-25T09:52:36.362Z,68.75
2022-08-25T09:55:34.403Z,165.38
2022-08-25T09:58:22.262Z,225.23
2022-08-25T10:01:14.440Z,154.90
2022-08-25T10:04:03.643Z,144.07
2022-08-25T10:06:45.352Z,98.25
2022-08-25T10:09:26.740Z,150.38
2022-08-25T10:12:01.189Z,192.30
2022-08-25T10:14:44.618Z,107.50
2022-08-25T10:17:24.814Z,70.13
2022-08-25T10:20:19.907Z,88.57
2022-08-25T10:22:50.663Z,62.28
2022-08-25T10:25:28.125Z,72.55
2022-08-25T10:28:14.651Z,69.10
2022-08-25T10:31:01.421Z,47.58
2022-08-25T10:33:40.808Z,79.72
2022-08-25T10:36:20.339Z,63.33
2022-08-25T10:38:58.324Z,64.80
2022-08-25T10:41:44.276Z,64.47
2022-08-25T10:44:43.707Z,81.68
2022-08-25T10:47:48.402Z,68.18
2022-08-25T10:50:33.208Z,74.80
2022-08-25T10:53:26.813Z,69.85
2022-08-25T10:56:08.671Z,49.03
2022-08-25T10:59:10.680Z,41.47
2022-08-25T11:02:00.274Z,29.45
2022-08-25T11:04:38.468Z,36.25
2022-08-25T11:07:18.327Z,48.50
2022-08-25T11:09:52.262Z,53.25
2022-08-25T11:12:31.383Z,55.47
2022-08-25T11:15:08.495Z,46.22
2022-08-25T11:17:50.262Z,52.33
2022-08-25T11:20:27.346Z,53.75
2022-08-25T11:23:12.970Z,60.45
2022-08-25T11:25:46.420Z,68.65
2022-08-25T11:28:27.399Z,64.30
2022-08-25T11:31:00.409Z,78.25
2022-08-25T11:33:33.170Z,81.38
2022-08-25T11:36:14.504Z,70.50
2022-08-25T11:38:58.782Z,74.57
2022-08-25T11:41:37.752Z,61.00
2022-08-25T11:44:53.445Z,64.00
2022-08-25T11:48:07.612Z,68.20
2022-08-25T11:50:57.913Z,64.03
2022-08-25T11:53:30.271Z,62.15
2022-08-25T11:56:04.587Z,75.50
2022-08-25T11:58:41.569Z,85.55
2022-08-25T12:01:34.415Z,77.50
2022-08-25T12:04:16.595Z,63.47
2022-08-25T12:07:25.617Z,66.60
2022-08-25T12:10:22.840Z,60.60
2022-08-25T12:13:22.659Z,53.63
2022-08-25T12:16:02.408Z,49.33
2022-08-25T12:18:46.496Z,47.95
2022-08-25T12:21:34.807Z,50.08
2022-08-25T12:24:26.353Z,46.60
2022-08-25T12:27:02.181Z,62.90
2022-08-25T12:29:44.539Z,42.05
2022-08-25T12:32:30.502Z,46.10
2022-08-25T12:35:33.973Z,57.13
2022-08-25T12:38:09.119Z,49.25
2022-08-25T12:40:59.908Z,46.17
2022-08-25T12:43:33.312Z,50.22
2022-08-25T12:46:37.666Z,46.70
2022-08-25T12:49:29.312Z,40.72
2022-08-25T12:52:03.331Z,69.20
2022-08-25T12:54:47.776Z,51.20
2022-08-25T12:57:44.473Z,47.10
2022-08-25T13:00:22.125Z,46.70
2022-08-25T13:03:22.924Z,47.90
2022-08-25T13:06:31.940Z,49.95
2022-08-25T13:09:48.290Z,39.78
2022-08-25T13:12:22.890Z,41.03
2022-08-25T13:14:59.105Z,35.65
2022-08-25T13:17:30.771Z,48.85
2022-08-25T13:20:19.909Z,61.85
2022-08-25T13:22:57.194Z,84.15
2022-08-25T13:25:33.317Z,77.72
2022-08-25T13:28:11.235Z,52.85
2022-08-25T13:30:42.429Z,64.65
2022-08-25T13:33:20.563Z,73.88
2022-08-25T13:36:13.149Z,63.78
2022-08-25T13:38:42.317Z,67.25
2022-08-25T13:41:28.954Z,59.83
2022-08-25T13:44:01.841Z,48.10
2022-08-25T13:46:35.521Z,69.43
2022-08-25T13:49:08.788Z,64.38
2022-08-25T13:51:39.733Z,65.25
2022-08-25T13:54:25.161Z,68.65
2022-08-25T13:56:54.728Z,57.58
2022-08-25T13:59:29.325Z,55.60
2022-08-25T14:02:00.720Z,75.82
2022-08-25T14:04:34.176Z,80.88
2022-08-25T14:07:34.077Z,61.47
2022-08-25T14:10:08.744Z,68.47
2022-08-25T14:12:44.682Z,73.32
2022-08-25T14:15:33.378Z,73.53
2022-08-25T14:18:09.073Z,74.60
2022-08-25T14:20:44.910Z,64.63
2022-08-25T14:23:20.214Z,64.97
2022-08-25T14:25:51.816Z,63.05
2022-08-25T14:28:23.981Z,73.28
2022-08-25T14:30:58.540Z,67.15
2022-08-25T14:33:34.250Z,82.13
2022-08-25T14:36:05.400Z,69.20
2022-08-25T14:38:38.986Z,70.30
2022-08-25T14:41:10.446Z,64.32
2022-08-25T14:43:39.665Z,57.17
2022-08-25T14:46:20.019Z,58.67
2022-08-25T14:48:55.587Z,52.83
2022-08-25T14:51:26.137Z,58.03
2022-08-25T14:54:00.603Z,50.90
2022-08-25T14:56:30.328Z,52.20
2022-08-25T14:59:01.384Z,49.72
2022-08-25T15:01:31.250Z,45.92
2022-08-25T15:04:05.987Z,46.65
2022-08-25T15:06:37.590Z,42.22
2022-08-25T15:09:13.802Z,46.17
2022-08-25T15:11:45.933Z,52.17
2022-08-25T15:14:17.401Z,41.88
2022-08-25T15:16:50.233Z,42.70
2022-08-25T15:19:24.692Z,44.15
2022-08-25T15:21:58.107Z,43.78
2022-08-25T15:24:29.908Z,50.67
2022-08-25T15:27:02.933Z,38.88
2022-08-25T15:29:36.122Z,41.10
2022-08-25T15:32:08.905Z,37.50
2022-08-25T15:34:39.977Z,41.55
2022-08-25T15:37:12.182Z,38.53
2022-08-25T15:39:43.377Z,41.97
2022-08-25T15:44:52.940Z,33.60
2022-08-25T15:47:24.183Z,37.28
2022-08-25T15:50:06.178Z,38.95
2022-08-25T15:52:46.302Z,45.70
2022-08-25T15:55:18.177Z,40.70
2022-08-25T16:00:21.641Z,38.45
2022-08-25T16:02:51.194Z,41.80
2022-08-25T16:05:25.642Z,50.97
2022-08-25T16:07:55.620Z,37.60
2022-08-25T16:10:25.155Z,39.45
2022-08-25T16:12:54.360Z,41.22
2022-08-25T16:15:28.840Z,40.80
2022-08-25T16:18:01.331Z,41.58
2022-08-25T16:20:37.235Z,42.75
2022-08-25T16:23:06.714Z,47.38
2022-08-25T16:25:41.785Z,41.08
2022-08-25T16:28:13.668Z,39.83
2022-08-25T16:30:52.593Z,42.60
2022-08-25T16:33:22.853Z,40.83
2022-08-25T16:35:53.393Z,40.95
2022-08-25T16:38:22.716Z,49.13
2022-08-25T16:40:51.900Z,53.97
2022-08-25T16:43:21.216Z,58.25
2022-08-25T16:45:59.777Z,41.00
2022-08-25T16:48:31.061Z,40.78
2022-08-25T16:51:01.645Z,37.45
2022-08-25T16:53:50.567Z,40.13
2022-08-25T16:56:24.707Z,44.20
2022-08-25T16:58:59.396Z,39.42
2022-08-25T17:01:31.658Z,40.42
2022-08-25T17:06:38.072Z,40.33
2022-08-25T17:09:09.446Z,49.53
2022-08-25T17:11:46.755Z,44.25
2022-08-25T17:14:19.264Z,45.88
2022-08-25T17:19:21.053Z,39.90
2022-08-25T17:21:55.294Z,44.65
2022-08-25T17:24:29.492Z,38.83
2022-08-25T17:27:02.056Z,47.17
2022-08-25T17:29:31.383Z,41.45
2022-08-25T17:32:00.543Z,42.15
2022-08-25T17:34:30.835Z,45.25
2022-08-25T17:37:02.421Z,46.40
2022-08-25T17:39:32.642Z,69.35
2022-08-25T17:42:01.786Z,46.10
2022-08-25T17:44:31.101Z,55.05
2022-08-25T17:47:00.657Z,46.30
2022-08-25T17:49:29.920Z,57.53
2022-08-25T17:52:01.084Z,45.10
2022-08-25T17:54:30.954Z,48.85
2022-08-25T17:57:01.720Z,45.45
2022-08-25T17:59:32.622Z,46.50
2022-08-25T18:02:03.520Z,48.38
2022-08-25T18:04:34.003Z,48.58
2022-08-25T18:07:04.664Z,51.85
2022-08-25T18:09:34.555Z,53.17
2022-08-25T18:12:04.982Z,50.92
2022-08-25T18:14:34.205Z,49.95
2022-08-25T18:17:04.179Z,65.63
2022-08-25T18:19:34.280Z,52.60
2022-08-25T18:22:06.273Z,53.05
2022-08-25T18:24:36.090Z,57.55
2022-08-25T18:27:05.816Z,60.92
2022-08-25T18:29:38.640Z,50.15
2022-08-25T18:32:12.447Z,60.53
2022-08-25T18:34:42.038Z,51.08
2022-08-25T18:37:30.169Z,58.22
2022-08-25T18:40:16.689Z,68.47
2022-08-25T18:42:45.951Z,60.35
2022-08-25T18:45:15.374Z,55.45
2022-08-25T18:47:44.607Z,53.22
2022-08-25T18:50:13.930Z,57.15
2022-08-25T18:52:45.814Z,58.40
2022-08-25T18:55:15.073Z,62.40
2022-08-25T18:57:44.402Z,76.00
2022-08-25T19:00:19.019Z,67.80
2022-08-25T19:02:51.430Z,66.93
2022-08-25T19:05:23.881Z,78.38
2022-08-25T19:10:24.876Z,77.10
2022-08-25T19:12:54.501Z,72.63
2022-08-25T19:15:31.195Z,77.95
2022-08-25T19:18:00.876Z,85.57
2022-08-25T19:20:30.865Z,86.25
2022-08-25T19:23:02.338Z,85.28
2022-08-25T19:25:33.168Z,93.18
2022-08-25T19:28:05.875Z,91.07
2022-08-25T19:30:36.039Z,85.90
2022-08-25T19:33:11.625Z,95.18
2022-08-25T19:35:46.264Z,100.50
2022-08-25T19:38:34.151Z,90.63
2022-08-25T19:41:14.227Z,91.15
2022-08-25T19:43:55.600Z,98.13
2022-08-25T19:46:33.262Z,88.32
2022-08-25T19:49:08.337Z,92.55
2022-08-25T19:51:44.352Z,93.30
2022-08-25T19:54:20.545Z,91.20
2022-08-25T19:56:55.037Z,96.63
2022-08-25T19:59:34.125Z,93.05
2022-08-25T20:02:07.559Z,93.70
2022-08-25T20:04:40.070Z,93.03
2022-08-25T20:07:12.505Z,94.85
2022-08-25T20:14:49.099Z,78.85
2022-08-25T20:17:24.598Z,96.80
2022-08-25T20:19:57.191Z,90.80
2022-08-25T20:22:27.737Z,98.65
2022-08-25T20:25:01.650Z,93.97
2022-08-25T20:27:36.052Z,99.78
2022-08-25T20:30:13.330Z,115.13
2022-08-25T20:32:42.918Z,95.82
2022-08-25T20:35:15.448Z,88.38
2022-08-25T20:37:47.641Z,100.78
2022-08-25T20:40:25.292Z,98.85
2022-08-25T20:42:55.844Z,83.38
2022-08-25T20:45:25.544Z,99.13
2022-08-25T20:47:54.734Z,101.25
2022-08-25T20:50:24.638Z,94.50
2022-08-25T20:52:56.852Z,97.53
2022-08-25T20:55:29.369Z,95.82
2022-08-25T20:57:59.029Z,87.32
2022-08-25T21:00:28.274Z,85.45
2022-08-25T21:02:57.467Z,78.47
2022-08-25T21:05:26.693Z,83.10
2022-08-25T21:07:55.864Z,80.70
2022-08-25T21:10:25.395Z,88.82
2022-08-25T21:12:56.119Z,105.63
2022-08-25T21:15:25.468Z,74.88
2022-08-25T21:17:56.174Z,98.50
2022-08-25T21:20:27.100Z,99.65
2022-08-25T21:22:56.775Z,103.03
2022-08-25T21:25:26.361Z,92.57
2022-08-25T21:27:56.937Z,92.97
2022-08-25T21:30:26.872Z,91.32
2022-08-25T21:32:57.759Z,79.63
2022-08-25T21:35:27.776Z,95.18
2022-08-25T21:37:58.809Z,95.90
2022-08-25T21:40:28.053Z,94.03
2022-08-25T21:42:58.672Z,92.50
2022-08-25T21:45:27.996Z,87.07
2022-08-25T21:48:06.504Z,83.57
2022-08-25T21:50:35.814Z,81.90
2022-08-25T21:53:05.147Z,86.60
2022-08-25T21:55:39.245Z,86.07
2022-08-25T21:58:13.122Z,79.20
2022-08-25T22:00:43.850Z,79.35
2022-08-25T22:03:13.143Z,96.47
2022-08-25T22:05:42.283Z,117.70
2022-08-25T22:10:45.789Z,60.17
2022-08-25T22:13:16.425Z,92.03
2022-08-25T22:15:47.412Z,84.57
2022-08-25T22:18:22.306Z,66.25
2022-08-25T22:20:52.643Z,75.60
2022-08-25T22:23:22.455Z,68.00
2022-08-25T22:25:58.355Z,71.45
2022-08-25T22:28:29.314Z,73.70
2022-08-25T22:31:02.527Z,87.40
2022-08-25T22:33:31.788Z,74.15
2022-08-25T22:36:00.868Z,78.05
2022-08-25T22:38:30.403Z,83.43
2022-08-25T22:41:03.749Z,80.50
2022-08-25T22:43:34.504Z,82.35
2022-08-25T22:46:05.381Z,71.65
2022-08-25T22:48:35.859Z,74.63
2022-08-25T22:51:09.423Z,69.28
2022-08-25T22:53:40.694Z,74.85
2022-08-25T22:56:11.530Z,77.28
2022-08-25T22:58:42.706Z,82.97
2022-08-25T23:01:21.784Z,75.65
2022-08-25T23:03:50.939Z,79.78
2022-08-25T23:06:24.811Z,76.22
2022-08-25T23:08:56.396Z,69.15
2022-08-25T23:11:27.129Z,79.22
2022-08-25T23:14:02.284Z,78.07
2022-08-25T23:16:32.257Z,70.85
2022-08-25T23:19:02.534Z,80.25
2022-08-25T23:21:49.119Z,63.63
2022-08-25T23:24:29.994Z,72.13
2022-08-25T23:27:01.333Z,68.55
2022-08-25T23:29:34.222Z,83.80
2022-08-25T23:32:04.129Z,76.45
2022-08-25T23:34:33.848Z,82.53
2022-08-25T23:37:03.481Z,77.72
2022-08-25T23:39:32.982Z,70.85
2022-08-25T23:42:02.181Z,76.85
2022-08-25T23:44:36.685Z,82.45
2022-08-25T23:47:06.844Z,78.70
2022-08-25T23:49:36.026Z,69.43
2022-08-25T23:52:06.148Z,88.65
2022-08-25T23:54:35.528Z,80.57
2022-08-25T23:57:06.829Z,77.28
2022-08-25T23:59:38.409Z,69.95
